Owens, Virginia
Current Conditions -  °F | °C
As of 10:55 AM on Thursday 27 Nov 2014 (Local Time) from KEZF Reporting Station
Light Rain Light Rain  
Wind Chill: 40°   Ceiling: 2900
Heat Index: 40°   Visibility: 10mi
Dew Point: 40°   Wind: 0mph
Humidity: 100%   Direction: NA
Pressure: 30.06"   Gusts: NA
Location:  38.265°N, 77.1228°W
Report Text: KEZF 271555Z AUTO 00000KT 10SM -RA OVC029 05/05 A3006 RMK AO2 T00470047
Loading
Personal Weather Stations






























Interactive Weather Map New forecast layout! Learn more

10-Day Weather Forecast

Advertisements
Track Severe Weather on mobile